This is the latest recevied weather packets stored in our database for station/object K4ZZR. If no packets are shown the sender has not sent any weather packets the latest 10 day(s).
| Time | Temp. | Humidity | Pressure | Rain* | Wind** | Luminosity | Snow |
|---|---|---|---|---|---|---|---|
| 1777407306 | 27.22° C | 77% | 1018 hPa | 0 mm | - | 773 W/m² | - |
| 1777407001 | 26.11° C | 79% | 1017.9 hPa | 0 mm | - | 820 W/m² | - |
| 1777406091 | 27.22° C | 75% | 1018 hPa | 0 mm | - | 761 W/m² | - |
| 1777404878 | 26.67° C | 73% | 1018.3 hPa | 0 mm | - | 794 W/m² | - |
| 1777404576 | 26.67° C | 71% | 1018.4 hPa | 0 mm | - | 804 W/m² | - |
| 1777404272 | 27.22° C | 70% | 1018.5 hPa | 0 mm | - | 815 W/m² | - |
| 1777403968 | 27.22° C | 72% | 1018.3 hPa | 0 mm | - | 824 W/m² | - |
| 1777403668 | 26.67° C | 73% | 1018.4 hPa | 0 mm | - | 836 W/m² | - |
| 1777403361 | 26.67° C | 73% | 1018.6 hPa | 0 mm | - | 709 W/m² | - |
| 1777403056 | 26.67° C | 75% | 1018.3 hPa | 0 mm | - | 866 W/m² | - |
| 1777401236 | 26.67° C | 74% | 1018.8 hPa | 0 mm | - | 911 W/m² | - |
| 1777400326 | 26.67° C | 75% | 1018.8 hPa | 0 mm | - | 948 W/m² | - |
| 1777398811 | 27.22° C | 72% | 1019 hPa | 0 mm | - | 956 W/m² | - |
| 1777397293 | 26.67° C | 75% | 1018.9 hPa | 0 mm | - | 334 W/m² | - |
| 1777396991 | 27.22° C | 74% | 1018.9 hPa | 0 mm | - | 1056 W/m² | - |
| 1777396080 | 27.78° C | 72% | 1019.1 hPa | 0 mm | - | 1006 W/m² | - |
| 1777393954 | 27.22° C | 74% | 1019.1 hPa | 0 mm | - | 970 W/m² | - |
| 1777393653 | 26.67° C | 74% | 1019.4 hPa | 0 mm | - | 967 W/m² | - |
| 1777393349 | 26.67° C | 73% | 1019.3 hPa | 0 mm | - | 967 W/m² | - |
| 1777392438 | 26.67° C | 72% | 1019.3 hPa | 0 mm | - | 949 W/m² | - |
| 1777392134 | 26.67° C | 72% | 1019.2 hPa | 0 mm | - | 940 W/m² | - |
| 1777391829 | 27.22° C | 73% | 1019.3 hPa | 0 mm | - | 170 W/m² | - |
| 1777391221 | 26.11° C | 74% | 1019.2 hPa | 0 mm | - | 557 W/m² | - |
| 1777390614 | 26.67° C | 74% | 1019 hPa | 0 mm | - | 387 W/m² | - |
| 1777390006 | 27.22° C | 72% | 1019.2 hPa | 0 mm | - | 426 W/m² | - |
* Rain latest hour (hover to see other rain measurements)
** Current wind speed in m/s (hover to see current wind gust speed)